sensor_id;sensor_type;location;lat;lon;timestamp;pressure;altitude;pressure_sealevel;temperature;humidity
44313;BME280;38833;51.142;-0.974;2023-07-31T00:01:32;99438.40;;;23.86;40.32
44313;BME280;38833;51.142;-0.974;2023-07-31T00:04:05;99436.89;;;23.52;40.49
44313;BME280;38833;51.142;-0.974;2023-07-31T00:06:39;99440.51;;;23.57;40.41
44313;BME280;38833;51.142;-0.974;2023-07-31T00:09:12;99442.88;;;23.69;40.22
44313;BME280;38833;51.142;-0.974;2023-07-31T00:11:45;99439.98;;;23.72;40.18
44313;BME280;38833;51.142;-0.974;2023-07-31T00:14:19;99437.87;;;23.65;40.27
44313;BME280;38833;51.142;-0.974;2023-07-31T00:16:53;99445.49;;;23.75;40.46
44313;BME280;38833;51.142;-0.974;2023-07-31T00:19:26;99439.54;;;23.99;40.44
44313;BME280;38833;51.142;-0.974;2023-07-31T00:22:00;99438.45;;;23.59;40.35
44313;BME280;38833;51.142;-0.974;2023-07-31T00:24:33;99428.72;;;23.98;40.41
44313;BME280;38833;51.142;-0.974;2023-07-31T00:27:06;99424.78;;;23.54;40.41
44313;BME280;38833;51.142;-0.974;2023-07-31T00:29:40;99411.34;;;23.76;40.36
44313;BME280;38833;51.142;-0.974;2023-07-31T00:32:14;99399.79;;;24.03;40.27
44313;BME280;38833;51.142;-0.974;2023-07-31T00:34:47;99400.14;;;23.75;40.42
44313;BME280;38833;51.142;-0.974;2023-07-31T00:37:21;99393.77;;;23.86;40.22
44313;BME280;38833;51.142;-0.974;2023-07-31T00:39:54;99388.14;;;23.63;40.24
44313;BME280;38833;51.142;-0.974;2023-07-31T00:42:27;99385.10;;;23.89;40.49
44313;BME280;38833;51.142;-0.974;2023-07-31T00:45:01;99387.69;;;23.71;40.41
44313;BME280;38833;51.142;-0.974;2023-07-31T00:47:34;99381.15;;;23.60;40.26
44313;BME280;38833;51.142;-0.974;2023-07-31T00:50:08;99376.80;;;24.07;40.19
44313;BME280;38833;51.142;-0.974;2023-07-31T00:52:42;99364.02;;;23.80;40.31
44313;BME280;38833;51.142;-0.974;2023-07-31T00:55:15;99355.48;;;23.49;40.45
44313;BME280;38833;51.142;-0.974;2023-07-31T00:57:49;99348.29;;;23.76;40.39
44313;BME280;38833;51.142;-0.974;2023-07-31T01:00:23;99347.99;;;23.89;40.56
44313;BME280;38833;51.142;-0.974;2023-07-31T01:02:57;99345.51;;;23.35;40.59
44313;BME280;38833;51.142;-0.974;2023-07-31T01:05:39;99346.78;;;23.57;40.62
44313;BME280;38833;51.142;-0.974;2023-07-31T01:08:21;99340.74;;;23.16;40.95
44313;BME280;38833;51.142;-0.974;2023-07-31T01:11:07;99326.77;;;23.72;40.79
44313;BME280;38833;51.142;-0.974;2023-07-31T01:13:44;99332.98;;;23.49;40.74
44313;BME280;38833;51.142;-0.974;2023-07-31T01:16:17;99338.39;;;23.64;40.84
44313;BME280;38833;51.142;-0.974;2023-07-31T01:18:51;99321.69;;;23.53;40.71
44313;BME280;38833;51.142;-0.974;2023-07-31T01:21:40;99313.58;;;23.19;40.90
44313;BME280;38833;51.142;-0.974;2023-07-31T01:24:21;99303.39;;;23.25;40.75
44313;BME280;38833;51.142;-0.974;2023-07-31T01:26:58;99299.63;;;23.84;40.51
44313;BME280;38833;51.142;-0.974;2023-07-31T01:29:42;99300.57;;;23.42;40.79
44313;BME280;38833;51.142;-0.974;2023-07-31T01:32:18;99297.42;;;23.48;40.74
44313;BME280;38833;51.142;-0.974;2023-07-31T01:34:51;99287.10;;;23.67;40.44
44313;BME280;38833;51.142;-0.974;2023-07-31T01:37:28;99284.25;;;23.73;40.69
44313;BME280;38833;51.142;-0.974;2023-07-31T01:40:04;99284.24;;;23.56;40.55
44313;BME280;38833;51.142;-0.974;2023-07-31T01:42:38;99283.79;;;23.18;40.82
44313;BME280;38833;51.142;-0.974;2023-07-31T01:45:12;99276.28;;;23.58;40.56
44313;BME280;38833;51.142;-0.974;2023-07-31T01:47:46;99265.14;;;23.25;40.65
44313;BME280;38833;51.142;-0.974;2023-07-31T01:50:19;99265.85;;;23.36;40.51
44313;BME280;38833;51.142;-0.974;2023-07-31T01:52:52;99263.07;;;23.60;40.50
44313;BME280;38833;51.142;-0.974;2023-07-31T01:55:26;99261.70;;;23.33;40.59
44313;BME280;38833;51.142;-0.974;2023-07-31T01:57:59;99256.26;;;23.33;40.52
44313;BME280;38833;51.142;-0.974;2023-07-31T02:00:32;99253.97;;;23.39;40.45
44313;BME280;38833;51.142;-0.974;2023-07-31T02:03:05;99255.41;;;23.47;40.39
44313;BME280;38833;51.142;-0.974;2023-07-31T02:05:44;99248.68;;;23.21;40.70
44313;BME280;38833;51.142;-0.974;2023-07-31T02:08:18;99257.86;;;23.42;40.49
44313;BME280;38833;51.142;-0.974;2023-07-31T02:10:51;99248.48;;;23.43;40.71
44313;BME280;38833;51.142;-0.974;2023-07-31T02:13:25;99242.52;;;23.43;40.73
44313;BME280;38833;51.142;-0.974;2023-07-31T02:15:58;99236.42;;;23.56;40.49
44313;BME280;38833;51.142;-0.974;2023-07-31T02:18:31;99240.47;;;23.71;40.56
44313;BME280;38833;51.142;-0.974;2023-07-31T02:21:05;99238.41;;;23.73;40.55
44313;BME280;38833;51.142;-0.974;2023-07-31T02:23:38;99232.92;;;23.42;40.37
44313;BME280;38833;51.142;-0.974;2023-07-31T02:26:11;99229.22;;;23.44;40.69
44313;BME280;38833;51.142;-0.974;2023-07-31T02:28:46;99217.28;;;23.46;40.63
44313;BME280;38833;51.142;-0.974;2023-07-31T02:31:19;99216.63;;;23.46;40.66
44313;BME280;38833;51.142;-0.974;2023-07-31T02:33:53;99215.36;;;23.49;40.55
44313;BME280;38833;51.142;-0.974;2023-07-31T02:36:26;99210.98;;;23.81;40.44
44313;BME280;38833;51.142;-0.974;2023-07-31T02:39:00;99209.15;;;23.51;40.52
44313;BME280;38833;51.142;-0.974;2023-07-31T02:41:34;99207.12;;;23.38;40.44
44313;BME280;38833;51.142;-0.974;2023-07-31T02:44:07;99205.53;;;23.86;40.32
44313;BME280;38833;51.142;-0.974;2023-07-31T02:46:40;99204.68;;;23.50;40.56
44313;BME280;38833;51.142;-0.974;2023-07-31T02:49:14;99201.28;;;23.29;40.53
44313;BME280;38833;51.142;-0.974;2023-07-31T02:51:48;99196.01;;;23.18;40.72
44313;BME280;38833;51.142;-0.974;2023-07-31T02:54:22;99190.00;;;23.31;40.52
44313;BME280;38833;51.142;-0.974;2023-07-31T02:56:55;99190.37;;;23.58;40.76
44313;BME280;38833;51.142;-0.974;2023-07-31T02:59:28;99177.54;;;23.70;40.58
44313;BME280;38833;51.142;-0.974;2023-07-31T03:02:02;99175.55;;;23.60;40.72
44313;BME280;38833;51.142;-0.974;2023-07-31T03:04:35;99182.22;;;23.57;40.76
44313;BME280;38833;51.142;-0.974;2023-07-31T03:07:09;99177.28;;;23.77;40.56
44313;BME280;38833;51.142;-0.974;2023-07-31T03:09:42;99187.44;;;23.55;40.53
44313;BME280;38833;51.142;-0.974;2023-07-31T03:12:16;99184.41;;;23.38;40.66
44313;BME280;38833;51.142;-0.974;2023-07-31T03:14:49;99173.73;;;23.50;40.54
44313;BME280;38833;51.142;-0.974;2023-07-31T03:17:23;99176.17;;;23.31;40.79
44313;BME280;38833;51.142;-0.974;2023-07-31T03:19:56;99173.03;;;23.35;40.72
44313;BME280;38833;51.142;-0.974;2023-07-31T03:22:29;99172.27;;;23.61;40.68
44313;BME280;38833;51.142;-0.974;2023-07-31T03:25:03;99166.64;;;23.52;40.45
44313;BME280;38833;51.142;-0.974;2023-07-31T03:27:37;99157.84;;;23.60;40.63
44313;BME280;38833;51.142;-0.974;2023-07-31T03:30:10;99147.14;;;23.57;40.35
44313;BME280;38833;51.142;-0.974;2023-07-31T03:32:44;99155.28;;;23.72;40.15
44313;BME280;38833;51.142;-0.974;2023-07-31T03:35:17;99157.12;;;23.43;40.22
44313;BME280;38833;51.142;-0.974;2023-07-31T03:37:51;99151.25;;;23.33;40.44
44313;BME280;38833;51.142;-0.974;2023-07-31T03:40:24;99153.81;;;23.71;40.07
44313;BME280;38833;51.142;-0.974;2023-07-31T03:42:57;99169.09;;;23.34;40.34
44313;BME280;38833;51.142;-0.974;2023-07-31T03:45:30;99164.82;;;23.32;40.41
44313;BME280;38833;51.142;-0.974;2023-07-31T03:48:05;99159.75;;;23.62;40.62
44313;BME280;38833;51.142;-0.974;2023-07-31T03:50:39;99153.30;;;23.39;40.35
44313;BME280;38833;51.142;-0.974;2023-07-31T03:53:12;99153.55;;;23.43;40.55
44313;BME280;38833;51.142;-0.974;2023-07-31T03:55:46;99149.62;;;23.35;40.36
44313;BME280;38833;51.142;-0.974;2023-07-31T03:58:19;99143.53;;;23.40;40.54
44313;BME280;38833;51.142;-0.974;2023-07-31T04:00:53;99145.71;;;23.38;40.58
44313;BME280;38833;51.142;-0.974;2023-07-31T04:03:27;99146.39;;;23.42;40.49
44313;BME280;38833;51.142;-0.974;2023-07-31T04:06:00;99149.74;;;23.52;40.34
44313;BME280;38833;51.142;-0.974;2023-07-31T04:08:34;99139.73;;;23.67;40.45
44313;BME280;38833;51.142;-0.974;2023-07-31T04:11:07;99138.53;;;23.30;40.37
44313;BME280;38833;51.142;-0.974;2023-07-31T04:13:41;99140.17;;;23.14;40.62
44313;BME280;38833;51.142;-0.974;2023-07-31T04:16:14;99136.53;;;23.24;40.46
44313;BME280;38833;51.142;-0.974;2023-07-31T04:18:48;99135.40;;;23.41;40.49
44313;BME280;38833;51.142;-0.974;2023-07-31T04:21:21;99138.03;;;23.65;40.53
44313;BME280;38833;51.142;-0.974;2023-07-31T04:23:55;99135.17;;;23.71;40.39
44313;BME280;38833;51.142;-0.974;2023-07-31T04:26:28;99131.83;;;23.55;40.65
44313;BME280;38833;51.142;-0.974;2023-07-31T04:29:02;99124.47;;;23.75;40.39
44313;BME280;38833;51.142;-0.974;2023-07-31T04:31:35;99125.88;;;23.14;40.58
44313;BME280;38833;51.142;-0.974;2023-07-31T04:34:08;99130.61;;;23.36;40.58
44313;BME280;38833;51.142;-0.974;2023-07-31T04:36:42;99125.31;;;23.15;40.59
44313;BME280;38833;51.142;-0.974;2023-07-31T04:39:15;99127.16;;;23.66;40.42
44313;BME280;38833;51.142;-0.974;2023-07-31T04:41:49;99128.88;;;23.58;40.58
44313;BME280;38833;51.142;-0.974;2023-07-31T04:44:22;99132.91;;;23.42;40.84
44313;BME280;38833;51.142;-0.974;2023-07-31T04:46:55;99134.47;;;23.15;40.50
44313;BME280;38833;51.142;-0.974;2023-07-31T04:49:29;99125.00;;;23.13;40.57
44313;BME280;38833;51.142;-0.974;2023-07-31T04:52:02;99128.06;;;23.87;40.21
44313;BME280;38833;51.142;-0.974;2023-07-31T04:54:36;99138.06;;;23.23;40.74
44313;BME280;38833;51.142;-0.974;2023-07-31T04:57:09;99129.14;;;23.47;40.75
44313;BME280;38833;51.142;-0.974;2023-07-31T04:59:43;99132.80;;;23.38;40.55
44313;BME280;38833;51.142;-0.974;2023-07-31T05:02:17;99132.82;;;23.41;40.48
44313;BME280;38833;51.142;-0.974;2023-07-31T05:04:50;99136.29;;;23.42;40.82
44313;BME280;38833;51.142;-0.974;2023-07-31T05:07:24;99131.42;;;23.38;40.87
44313;BME280;38833;51.142;-0.974;2023-07-31T05:09:57;99132.54;;;23.65;40.43
44313;BME280;38833;51.142;-0.974;2023-07-31T05:12:31;99126.10;;;23.63;40.55
44313;BME280;38833;51.142;-0.974;2023-07-31T05:15:05;99126.48;;;23.29;40.62
44313;BME280;38833;51.142;-0.974;2023-07-31T05:17:39;99122.83;;;23.68;40.47
44313;BME280;38833;51.142;-0.974;2023-07-31T05:20:12;99121.77;;;23.44;40.75
44313;BME280;38833;51.142;-0.974;2023-07-31T05:22:46;99126.96;;;23.35;40.52
44313;BME280;38833;51.142;-0.974;2023-07-31T05:25:20;99128.62;;;23.02;40.73
44313;BME280;38833;51.142;-0.974;2023-07-31T05:27:53;99126.17;;;23.13;40.90
44313;BME280;38833;51.142;-0.974;2023-07-31T05:30:29;99120.62;;;22.94;40.97
44313;BME280;38833;51.142;-0.974;2023-07-31T05:33:03;99123.95;;;23.21;40.51
44313;BME280;38833;51.142;-0.974;2023-07-31T05:35:36;99114.66;;;23.44;40.38
44313;BME280;38833;51.142;-0.974;2023-07-31T05:38:10;99100.25;;;23.16;40.49
44313;BME280;38833;51.142;-0.974;2023-07-31T05:40:43;99106.35;;;23.46;40.66
44313;BME280;38833;51.142;-0.974;2023-07-31T05:43:17;99113.38;;;23.26;40.63
44313;BME280;38833;51.142;-0.974;2023-07-31T05:45:51;99121.70;;;23.49;40.68
44313;BME280;38833;51.142;-0.974;2023-07-31T05:48:24;99126.16;;;23.68;40.38
44313;BME280;38833;51.142;-0.974;2023-07-31T05:50:57;99129.94;;;23.05;40.66
44313;BME280;38833;51.142;-0.974;2023-07-31T05:53:31;99125.20;;;22.99;40.73
44313;BME280;38833;51.142;-0.974;2023-07-31T05:56:04;99124.14;;;23.16;40.47
44313;BME280;38833;51.142;-0.974;2023-07-31T05:58:38;99130.93;;;23.52;40.62
44313;BME280;38833;51.142;-0.974;2023-07-31T06:01:11;99134.11;;;23.49;40.38
44313;BME280;38833;51.142;-0.974;2023-07-31T06:03:44;99136.28;;;23.36;40.52
44313;BME280;38833;51.142;-0.974;2023-07-31T06:06:18;99129.74;;;23.27;40.66
44313;BME280;38833;51.142;-0.974;2023-07-31T06:08:51;99128.12;;;23.48;40.71
44313;BME280;38833;51.142;-0.974;2023-07-31T06:11:25;99124.63;;;23.21;40.78
44313;BME280;38833;51.142;-0.974;2023-07-31T06:13:58;99124.09;;;23.48;40.73
44313;BME280;38833;51.142;-0.974;2023-07-31T06:16:32;99129.06;;;23.64;40.52
44313;BME280;38833;51.142;-0.974;2023-07-31T06:19:06;99123.28;;;23.24;40.70
44313;BME280;38833;51.142;-0.974;2023-07-31T06:21:39;99115.37;;;23.16;40.43
44313;BME280;38833;51.142;-0.974;2023-07-31T06:24:13;99106.75;;;23.03;40.71
44313;BME280;38833;51.142;-0.974;2023-07-31T06:26:46;99111.21;;;23.07;40.96
44313;BME280;38833;51.142;-0.974;2023-07-31T06:29:20;99112.31;;;23.34;40.61
44313;BME280;38833;51.142;-0.974;2023-07-31T06:31:54;99113.44;;;23.36;40.56
44313;BME280;38833;51.142;-0.974;2023-07-31T06:34:27;99111.74;;;23.35;40.90
44313;BME280;38833;51.142;-0.974;2023-07-31T06:37:01;99118.18;;;23.39;40.52
44313;BME280;38833;51.142;-0.974;2023-07-31T06:39:34;99117.46;;;23.06;40.66
44313;BME280;38833;51.142;-0.974;2023-07-31T06:42:08;99113.25;;;23.39;40.91
44313;BME280;38833;51.142;-0.974;2023-07-31T06:44:41;99107.54;;;23.50;40.77
44313;BME280;38833;51.142;-0.974;2023-07-31T06:47:14;99099.40;;;23.19;40.51
44313;BME280;38833;51.142;-0.974;2023-07-31T06:49:48;99104.63;;;23.26;40.77
44313;BME280;38833;51.142;-0.974;2023-07-31T06:52:21;99103.61;;;23.31;40.69
44313;BME280;38833;51.142;-0.974;2023-07-31T06:55:04;99101.23;;;23.61;40.54
44313;BME280;38833;51.142;-0.974;2023-07-31T06:57:49;99107.53;;;23.54;40.67
44313;BME280;38833;51.142;-0.974;2023-07-31T07:00:24;99108.26;;;23.57;40.64
44313;BME280;38833;51.142;-0.974;2023-07-31T07:02:57;99100.64;;;23.66;40.56
44313;BME280;38833;51.142;-0.974;2023-07-31T07:05:31;99094.72;;;23.72;40.48
44313;BME280;38833;51.142;-0.974;2023-07-31T07:08:04;99081.59;;;23.46;40.51
44313;BME280;38833;51.142;-0.974;2023-07-31T07:10:37;99092.05;;;23.67;40.49
44313;BME280;38833;51.142;-0.974;2023-07-31T07:13:11;99092.23;;;23.70;40.54
44313;BME280;38833;51.142;-0.974;2023-07-31T07:15:48;99086.76;;;23.54;40.77
44313;BME280;38833;51.142;-0.974;2023-07-31T07:18:21;99076.20;;;23.28;40.45
44313;BME280;38833;51.142;-0.974;2023-07-31T07:20:54;99075.41;;;23.79;40.40
44313;BME280;38833;51.142;-0.974;2023-07-31T07:23:28;99073.27;;;23.54;40.38
44313;BME280;38833;51.142;-0.974;2023-07-31T07:26:01;99073.66;;;23.42;40.59
44313;BME280;38833;51.142;-0.974;2023-07-31T07:28:35;99077.88;;;23.83;40.31
44313;BME280;38833;51.142;-0.974;2023-07-31T07:31:08;99076.17;;;23.68;40.58
44313;BME280;38833;51.142;-0.974;2023-07-31T07:33:41;99086.65;;;23.80;40.47
44313;BME280;38833;51.142;-0.974;2023-07-31T07:36:15;99090.81;;;23.55;40.51
44313;BME280;38833;51.142;-0.974;2023-07-31T07:38:49;99082.94;;;23.22;40.55
44313;BME280;38833;51.142;-0.974;2023-07-31T07:41:22;99080.20;;;23.15;40.64
44313;BME280;38833;51.142;-0.974;2023-07-31T07:43:55;99071.90;;;23.74;40.58
44313;BME280;38833;51.142;-0.974;2023-07-31T07:46:29;99074.96;;;23.41;40.34
44313;BME280;38833;51.142;-0.974;2023-07-31T07:49:03;99071.60;;;23.87;40.37
44313;BME280;38833;51.142;-0.974;2023-07-31T07:51:36;99062.68;;;23.60;40.35
44313;BME280;38833;51.142;-0.974;2023-07-31T07:54:09;99056.04;;;23.61;40.37
44313;BME280;38833;51.142;-0.974;2023-07-31T07:56:43;99049.27;;;23.69;40.59
44313;BME280;38833;51.142;-0.974;2023-07-31T07:59:17;99046.63;;;23.50;40.89
44313;BME280;38833;51.142;-0.974;2023-07-31T08:01:50;99046.09;;;23.72;40.61
44313;BME280;38833;51.142;-0.974;2023-07-31T08:04:23;99049.39;;;23.53;40.86
44313;BME280;38833;51.142;-0.974;2023-07-31T08:06:57;99048.43;;;23.77;40.53
44313;BME280;38833;51.142;-0.974;2023-07-31T08:09:30;99039.09;;;23.13;40.83
44313;BME280;38833;51.142;-0.974;2023-07-31T08:12:04;99033.50;;;23.48;40.69
44313;BME280;38833;51.142;-0.974;2023-07-31T08:14:38;99028.06;;;23.49;40.64
44313;BME280;38833;51.142;-0.974;2023-07-31T08:17:11;99026.52;;;23.59;40.58
44313;BME280;38833;51.142;-0.974;2023-07-31T08:19:45;99030.80;;;23.79;40.24
44313;BME280;38833;51.142;-0.974;2023-07-31T08:22:18;99034.42;;;24.00;40.25
44313;BME280;38833;51.142;-0.974;2023-07-31T08:24:52;99028.99;;;23.77;40.25
44313;BME280;38833;51.142;-0.974;2023-07-31T08:27:25;99034.55;;;23.83;40.14
44313;BME280;38833;51.142;-0.974;2023-07-31T08:29:59;99035.47;;;23.74;40.32
44313;BME280;38833;51.142;-0.974;2023-07-31T08:32:32;99037.68;;;23.67;40.11
44313;BME280;38833;51.142;-0.974;2023-07-31T08:35:06;99033.12;;;23.65;40.11
44313;BME280;38833;51.142;-0.974;2023-07-31T08:37:39;99023.89;;;23.97;40.00
44313;BME280;38833;51.142;-0.974;2023-07-31T08:40:13;99016.88;;;23.90;40.40
44313;BME280;38833;51.142;-0.974;2023-07-31T08:42:47;99015.62;;;23.86;40.15
44313;BME280;38833;51.142;-0.974;2023-07-31T08:45:21;99016.38;;;24.17;40.04
44313;BME280;38833;51.142;-0.974;2023-07-31T08:47:56;99017.39;;;23.98;40.02
44313;BME280;38833;51.142;-0.974;2023-07-31T08:50:29;99015.53;;;23.86;39.88
44313;BME280;38833;51.142;-0.974;2023-07-31T08:53:03;99009.92;;;24.10;39.87
44313;BME280;38833;51.142;-0.974;2023-07-31T08:55:37;99019.64;;;24.04;39.64
44313;BME280;38833;51.142;-0.974;2023-07-31T08:58:12;99010.88;;;24.16;39.83
44313;BME280;38833;51.142;-0.974;2023-07-31T09:00:46;99025.84;;;24.45;39.73
44313;BME280;38833;51.142;-0.974;2023-07-31T09:03:22;99034.28;;;24.07;39.64
44313;BME280;38833;51.142;-0.974;2023-07-31T09:05:56;99034.59;;;23.87;39.97
44313;BME280;38833;51.142;-0.974;2023-07-31T09:08:31;99020.96;;;24.10;39.91
44313;BME280;38833;51.142;-0.974;2023-07-31T09:11:04;99002.17;;;23.96;39.77
44313;BME280;38833;51.142;-0.974;2023-07-31T09:13:40;98982.53;;;23.81;40.00
44313;BME280;38833;51.142;-0.974;2023-07-31T09:16:14;99001.32;;;24.09;39.93
44313;BME280;38833;51.142;-0.974;2023-07-31T09:18:53;99012.78;;;24.24;40.11
44313;BME280;38833;51.142;-0.974;2023-07-31T09:21:27;99022.30;;;24.12;40.31
44313;BME280;38833;51.142;-0.974;2023-07-31T09:24:01;99018.85;;;23.77;40.14
44313;BME280;38833;51.142;-0.974;2023-07-31T09:26:35;99011.03;;;23.93;39.86
44313;BME280;38833;51.142;-0.974;2023-07-31T09:29:19;99013.36;;;24.16;40.21
44313;BME280;38833;51.142;-0.974;2023-07-31T09:31:54;98983.93;;;24.27;39.74
44313;BME280;38833;51.142;-0.974;2023-07-31T09:34:30;98963.21;;;24.04;39.74
44313;BME280;38833;51.142;-0.974;2023-07-31T09:37:05;98973.78;;;24.11;39.66
44313;BME280;38833;51.142;-0.974;2023-07-31T09:39:46;98978.00;;;24.11;39.70
44313;BME280;38833;51.142;-0.974;2023-07-31T09:42:26;98990.05;;;24.21;39.83
44313;BME280;38833;51.142;-0.974;2023-07-31T09:45:07;99003.70;;;24.19;39.55
44313;BME280;38833;51.142;-0.974;2023-07-31T09:47:46;98985.16;;;24.22;39.55
44313;BME280;38833;51.142;-0.974;2023-07-31T09:50:21;98970.95;;;24.31;39.40
44313;BME280;38833;51.142;-0.974;2023-07-31T09:52:55;98970.40;;;24.42;39.98
44313;BME280;38833;51.142;-0.974;2023-07-31T09:55:30;98978.63;;;24.40;39.71
44313;BME280;38833;51.142;-0.974;2023-07-31T09:58:05;98983.15;;;24.18;39.71
44313;BME280;38833;51.142;-0.974;2023-07-31T10:00:39;98994.79;;;24.00;39.96
44313;BME280;38833;51.142;-0.974;2023-07-31T10:03:12;98992.89;;;23.90;40.09
44313;BME280;38833;51.142;-0.974;2023-07-31T10:05:50;98981.13;;;24.04;39.86
44313;BME280;38833;51.142;-0.974;2023-07-31T10:08:27;98987.67;;;23.90;40.08
44313;BME280;38833;51.142;-0.974;2023-07-31T10:11:02;98994.29;;;23.95;40.08
44313;BME280;38833;51.142;-0.974;2023-07-31T10:13:37;99010.84;;;24.21;39.98
44313;BME280;38833;51.142;-0.974;2023-07-31T10:16:12;99016.65;;;23.97;40.36
44313;BME280;38833;51.142;-0.974;2023-07-31T10:18:47;99025.19;;;23.94;40.49
44313;BME280;38833;51.142;-0.974;2023-07-31T10:21:21;99037.04;;;23.87;40.18
44313;BME280;38833;51.142;-0.974;2023-07-31T10:23:56;99042.39;;;24.04;39.94
44313;BME280;38833;51.142;-0.974;2023-07-31T10:26:29;99037.01;;;23.97;40.05
44313;BME280;38833;51.142;-0.974;2023-07-31T10:29:04;99041.14;;;23.97;40.04
44313;BME280;38833;51.142;-0.974;2023-07-31T10:31:38;99036.03;;;24.05;40.01
44313;BME280;38833;51.142;-0.974;2023-07-31T10:34:12;99032.86;;;24.10;39.76
44313;BME280;38833;51.142;-0.974;2023-07-31T10:36:46;99031.06;;;23.96;40.33
44313;BME280;38833;51.142;-0.974;2023-07-31T10:39:36;99028.75;;;24.33;39.98
44313;BME280;38833;51.142;-0.974;2023-07-31T10:42:12;99023.94;;;24.12;39.84
44313;BME280;38833;51.142;-0.974;2023-07-31T10:44:47;99015.49;;;24.19;39.77
44313;BME280;38833;51.142;-0.974;2023-07-31T10:47:20;99016.18;;;24.15;39.75
44313;BME280;38833;51.142;-0.974;2023-07-31T10:50:11;99007.08;;;23.93;40.10
44313;BME280;38833;51.142;-0.974;2023-07-31T10:52:47;99019.88;;;24.11;39.93
44313;BME280;38833;51.142;-0.974;2023-07-31T10:55:30;99016.11;;;23.88;40.22
44313;BME280;38833;51.142;-0.974;2023-07-31T10:58:07;99022.81;;;23.98;40.04
44313;BME280;38833;51.142;-0.974;2023-07-31T11:00:43;99033.93;;;23.89;40.19
44313;BME280;38833;51.142;-0.974;2023-07-31T11:03:18;99028.30;;;24.31;39.91
44313;BME280;38833;51.142;-0.974;2023-07-31T11:05:53;99022.75;;;24.25;40.02
44313;BME280;38833;51.142;-0.974;2023-07-31T11:08:34;99021.17;;;24.11;39.84
44313;BME280;38833;51.142;-0.974;2023-07-31T11:11:10;99004.11;;;24.34;40.21
44313;BME280;38833;51.142;-0.974;2023-07-31T11:13:46;98987.35;;;24.28;39.90
44313;BME280;38833;51.142;-0.974;2023-07-31T11:16:21;98974.15;;;24.07;39.91
44313;BME280;38833;51.142;-0.974;2023-07-31T11:18:55;98977.11;;;24.22;39.68
44313;BME280;38833;51.142;-0.974;2023-07-31T11:21:28;98999.48;;;24.23;40.03
44313;BME280;38833;51.142;-0.974;2023-07-31T11:24:02;98990.35;;;24.05;39.98
44313;BME280;38833;51.142;-0.974;2023-07-31T11:26:35;99003.88;;;24.03;39.98
44313;BME280;38833;51.142;-0.974;2023-07-31T11:29:11;99020.01;;;23.97;40.10
44313;BME280;38833;51.142;-0.974;2023-07-31T11:31:45;99030.93;;;24.23;40.02
44313;BME280;38833;51.142;-0.974;2023-07-31T11:34:19;99036.21;;;24.11;39.88
44313;BME280;38833;51.142;-0.974;2023-07-31T11:36:53;99039.63;;;24.13;39.87
44313;BME280;38833;51.142;-0.974;2023-07-31T11:39:27;99041.17;;;24.16;39.78
44313;BME280;38833;51.142;-0.974;2023-07-31T11:42:02;99039.49;;;24.17;39.74
44313;BME280;38833;51.142;-0.974;2023-07-31T11:44:39;99036.00;;;24.13;39.79
44313;BME280;38833;51.142;-0.974;2023-07-31T11:47:13;99031.51;;;23.86;40.26
44313;BME280;38833;51.142;-0.974;2023-07-31T11:49:48;99029.71;;;24.01;40.00
44313;BME280;38833;51.142;-0.974;2023-07-31T11:52:23;99028.71;;;23.78;40.31
44313;BME280;38833;51.142;-0.974;2023-07-31T11:54:56;99010.54;;;24.28;39.92
44313;BME280;38833;51.142;-0.974;2023-07-31T11:57:31;99013.75;;;24.08;39.88
44313;BME280;38833;51.142;-0.974;2023-07-31T12:00:05;99019.14;;;24.09;39.90
44313;BME280;38833;51.142;-0.974;2023-07-31T12:02:40;99008.75;;;24.34;39.85
44313;BME280;38833;51.142;-0.974;2023-07-31T12:05:14;99014.65;;;24.55;39.87
44313;BME280;38833;51.142;-0.974;2023-07-31T12:07:50;99007.42;;;24.20;40.04
44313;BME280;38833;51.142;-0.974;2023-07-31T12:10:27;98998.00;;;24.10;39.88
44313;BME280;38833;51.142;-0.974;2023-07-31T12:13:02;98987.65;;;24.12;39.86
44313;BME280;38833;51.142;-0.974;2023-07-31T12:15:38;98972.15;;;24.11;39.87
44313;BME280;38833;51.142;-0.974;2023-07-31T12:18:14;98989.07;;;24.06;39.94
44313;BME280;38833;51.142;-0.974;2023-07-31T12:20:54;98992.68;;;24.07;39.97
44313;BME280;38833;51.142;-0.974;2023-07-31T12:23:29;98988.68;;;24.18;40.09
44313;BME280;38833;51.142;-0.974;2023-07-31T12:26:05;98982.01;;;24.04;39.98
44313;BME280;38833;51.142;-0.974;2023-07-31T12:28:41;98978.72;;;24.51;39.93
44313;BME280;38833;51.142;-0.974;2023-07-31T12:31:16;98974.94;;;23.96;40.12
44313;BME280;38833;51.142;-0.974;2023-07-31T12:33:50;98973.36;;;24.02;39.98
44313;BME280;38833;51.142;-0.974;2023-07-31T12:36:24;98982.86;;;24.31;39.87
44313;BME280;38833;51.142;-0.974;2023-07-31T12:38:58;98984.55;;;23.96;40.02
44313;BME280;38833;51.142;-0.974;2023-07-31T12:41:31;98973.16;;;23.93;40.07
44313;BME280;38833;51.142;-0.974;2023-07-31T12:44:05;98960.09;;;23.94;40.07
44313;BME280;38833;51.142;-0.974;2023-07-31T12:46:38;98962.87;;;24.16;40.05
44313;BME280;38833;51.142;-0.974;2023-07-31T12:49:12;98968.87;;;23.80;40.24
44313;BME280;38833;51.142;-0.974;2023-07-31T12:51:45;98972.05;;;24.33;40.09
44313;BME280;38833;51.142;-0.974;2023-07-31T12:54:18;98970.84;;;24.33;40.17
44313;BME280;38833;51.142;-0.974;2023-07-31T12:56:52;98965.61;;;24.11;40.43
44313;BME280;38833;51.142;-0.974;2023-07-31T12:59:25;98948.25;;;24.14;40.38
44313;BME280;38833;51.142;-0.974;2023-07-31T13:01:58;98962.55;;;23.87;40.15
44313;BME280;38833;51.142;-0.974;2023-07-31T13:04:32;98971.81;;;23.69;40.38
44313;BME280;38833;51.142;-0.974;2023-07-31T13:07:06;98979.83;;;23.99;40.32
44313;BME280;38833;51.142;-0.974;2023-07-31T13:09:39;98981.27;;;23.91;40.46
44313;BME280;38833;51.142;-0.974;2023-07-31T13:12:12;98981.72;;;23.99;40.73
44313;BME280;38833;51.142;-0.974;2023-07-31T13:14:46;98975.95;;;24.11;40.49
44313;BME280;38833;51.142;-0.974;2023-07-31T13:17:19;98984.93;;;23.96;40.33
44313;BME280;38833;51.142;-0.974;2023-07-31T13:19:52;99004.26;;;23.63;40.52
44313;BME280;38833;51.142;-0.974;2023-07-31T13:22:26;99004.43;;;23.71;40.74
44313;BME280;38833;51.142;-0.974;2023-07-31T13:24:59;99004.28;;;23.89;40.44
44313;BME280;38833;51.142;-0.974;2023-07-31T13:27:33;99010.13;;;24.11;40.46